Forside
METAR-TAF:

METAR-TAF

Lufthavne :

Tongatapu, Tonga

Breddekreds: 21-14S, længdekreds: 175-09W, højde: 38 m

Aktuelle vejr

Denne rapport blev lavet for 1 time og 2 minutter siden, kl. 00:00 UTC
Vind 9 kt fra øst
Temperatur 28°C
Fugtighed 74%
Tryk 1013 hPa
Sigt 10 km eller mere
Nogle få skyer i en højde af 800 ft

METAR: NFTF 210000Z 09009KT 9999 FEW008 28/23 Q1013

Tid: 14:02 (01:02 UTC)

Vejrudsigter

Denne rapport blev lavet for 1 time og 53 minutter siden, kl. 23:09 UTC
Foreløbig gælder fra 21 på 00 UTC til 21 på 24 UTC
Vind 7 kt fra øst
Sigt 10 km eller mere
Nogle få skyer i en højde af 1000 ft

TAF: NFTF 202309Z 2100/2124 08007KT 9999 FEW010

Vejrobservationer og prognoser fra mere end 4000 lufthavne (METAR og TAF).

De gule og røde prikker repræsenterer de meteorologiske stationer.

Flyt musen over at se navnet på stationen.

Så klik over at se vejr observationer og prognoser.

At skifte det kort: Klik på de grønne knapper med et sort kors for at zoome ind; på den grønne knap med en bindestreg for at zoome ud; eller på de grønne pile for tilstødende kort.


METAR-TAF: